• Join FlightAware (Why Join?)
  • Login
  • US Flag 
07:20PM EDT


 

Airport Tracker/Info


-or-


 

Live Flight TrackerFlight Track Log ✈ JBU690 ✈ 25-Jan-2014 ✈ KDCA - KBOS

Flight Track Log - Related Links

Times and Time Zones

All times are in EST time to prevent confusion due to time zone crossing. See the JBU690 flight status page for this flight to view local times or setup timezone preferences in your user account.

Time Position Orientation Groundspeed Altitude Reporting Facility
EST Latitude Longitude Course Direction KTS MPH feet Rate Location/Type
03:53PM 38.8167 -77.0333 63° Northeast 130 150 1,900  Level Potomac TRACON
03:54PM 38.7667 -77.0333 180° South 207 238 3,600 2,160 Climbing Potomac TRACON
03:55PM 38.7500 -76.9500 104° East 290 334 6,300 2,580 Climbing Potomac TRACON
03:56PM 38.9853 -76.6443 67° East  Level FlightAware Approximate
03:56PM 38.8000 -76.8667 52° Northeast 325 374 8,800  Level Potomac TRACON
03:57PM 39.0333 -76.5102 62° Northeast  Level FlightAware Approximate
03:57PM 38.8397 -76.8139 46° Northeast 322 371 10,600  Level Washington Center
03:58PM 39.0876 -76.3798 62° Northeast  Level FlightAware Approximate
03:58PM 38.9036 -76.7222 48° Northeast 342 394 13,500  Level Washington Center
03:59PM 39.1329 -76.2594 63° Northeast  Level FlightAware Approximate
03:59PM 38.9586 -76.6089 58° Northeast 374 430 15,300  Level Washington Center
04:00PM 39.0242 -76.4808 57° Northeast 429 494 17,300 2,220 Climbing Washington Center
04:01PM 39.0922 -76.3483 56° Northeast 443 510 20,000 2,340 Climbing Washington Center
04:02PM 39.1603 -76.1681 64° Northeast 473 544 22,100 1,800 Climbing Washington Center
04:03PM 39.1775 -76.0086 82° East 476 548 23,800 1,500 Climbing Washington Center
04:04PM 39.2542 -75.8606 56° Northeast 502 578 25,200 1,140 Climbing Washington Center
04:05PM 39.3547 -75.7214 47° Northeast 532 612 26,200 1,200 Climbing Washington Center
04:06PM 39.4539 -75.5750 49° Northeast 541 623 27,700 1,680 Climbing Washington Center
04:07PM 39.5736 -75.3975 49° Northeast 545 627 29,800 1,560 Climbing Washington Center
04:08PM 39.6731 -75.2514 48° Northeast 541 623 31,000 600 Climbing Washington Center
04:09PM 39.7642 -75.1222 47° Northeast 551 634 31,000  Level New York Center
04:10PM 39.8661 -74.9792 47° Northeast 545 627 31,000  Level New York Center
04:11PM 39.9672 -74.8328 48° Northeast 548 631 31,000  Level New York Center
04:12PM 40.0708 -74.6842 48° Northeast 552 635 31,000  Level New York Center
04:13PM 40.1672 -74.5364 49° Northeast 536 617 31,000  Level New York Center
04:14PM 40.2239 -74.3625 67° East 526 605 31,000  Level New York Center
04:15PM 40.3317 -74.1753 53° Northeast 541 623 31,000  Level New York Center
04:16PM 40.4353 -74.0353 46° Northeast 540 621 31,000  Level New York Center
04:17PM 40.5372 -73.8928 47° Northeast 539 620 31,000  Level New York Center
04:18PM 40.6419 -73.7450 47° Northeast 539 620 31,000 -900 Level New York Center
04:19PM 40.7467 -73.5989 47° Northeast 555 639 29,200 -1,980 Descending New York Center
04:20PM 40.8556 -73.4472 46° Northeast 565 650 27,000 -1,500 Descending New York Center
04:21PM 40.9161 -73.3603 47° Northeast 559 643 26,900 -1,140 Descending Boston Center
04:22PM 41.0139 -73.2211 47° Northeast 531 611 25,300 -1,560 Descending Boston Center
04:23PM 41.1308 -73.1339 29° Northeast 495 570 23,800 -1,140 Descending Boston Center
04:24PM 41.2294 -73.0214 41° Northeast 483 556 23,000 -420 Descending Boston Center
04:25PM 41.2892 -72.8475 65° Northeast 490 564 23,000  Level Boston Center
04:26PM 41.3450 -72.6806 66° East 490 564 23,000  Level Boston Center
04:27PM 41.4014 -72.5122 66° East 491 565 23,000  Level Boston Center
04:28PM 41.4572 -72.3450 66° East 491 565 23,000  Level Boston Center
04:29PM 41.5125 -72.1789 66° East 491 565 23,000 -480 Level Boston Center
04:30PM 41.5619 -72.0300 66° East 491 565 22,100 -1,440 Descending Boston Center
04:31PM 41.6133 -71.8714 67° East 473 544 20,100 -2,280 Descending Boston Center
04:32PM 41.6731 -71.6906 66° East 454 522 17,500 -1,920 Descending Boston Center
04:33PM 41.7158 -71.5539 67° East 401 461 16,200 -1,560 Descending Boston Center
04:34PM 41.7631 -71.4125 66° East 401 461 14,500 -1,680 Descending Boston Center
04:35PM 41.8050 -71.2808 67° East 385 443 12,900 -1,620 Descending Boston Center
04:36PM 41.8478 -71.1481 67° East 362 417 11,200 -1,620 Descending Boston Center
04:37PM 41.8986 -71.0342 59° Northeast 358 412 9,700 -1,500 Descending Boston Center
04:38PM 41.9494 -70.9267 58° Northeast 345 397 8,200 -840 Descending Boston Center
04:39PM 42.0033 -70.8217 55° Northeast 342 394 8,000 -120 Descending Boston Center
04:40PM 42.0561 -70.7164 56° Northeast 341 392 8,000 -300 Level Boston Center
04:41PM 42.1119 -70.6336 48° Northeast 314 361 7,400 -900 Descending Boston Center
04:42PM 42.1903 -70.5953 20° North 303 349 6,200 -720 Descending Boston Center
04:43PM 42.2636 -70.5428 28° Northeast 301 346 6,000 -120 Descending Boston Center
04:44PM 42.3500 -70.5500 356° North 266 306 6,000  Level KA90
04:45PM 42.4167 -70.6000 331° Northwest 244 281 6,000  Level KA90
04:46PM 42.4667 -70.6333 334° Northwest 247 284 6,000  Level KA90
04:47PM 42.5333 -70.6833 331° Northwest 251 289 6,000 -180 Level KA90
04:48PM 42.6000 -70.7333 331° Northwest 247 284 5,700 -540 Descending KA90
04:49PM 42.6500 -70.7667 334° Northwest 249 287 5,000 -300 Descending KA90
04:50PM 42.7208 -70.7372 17° North 274 315 5,100  Climbing Boston Center
04:51PM 42.7842 -70.7303 North 247 284 5,100 -420 Level Boston Center
04:52PM 42.7714 -70.7856 253° West 161 185 4,300 -540 Descending Boston Center
04:53PM 42.7364 -70.8258 220° Southwest 161 185 4,100 -120 Descending Boston Center
04:54PM 42.6967 -70.8447 199° South 152 175 4,100  Level Boston Center
04:55PM 42.6603 -70.8617 199° South 143 165 4,100  Level Boston Center
04:56PM 42.6239 -70.8797 200° South 141 162 4,100 -60 Level Boston Center
04:57PM 42.5833 -70.9000 200° South 143 165 4,000 -120 Descending KA90
04:58PM 42.5500 -70.9167 200° South 141 162 3,900 -420 Descending KA90
04:59PM 42.5167 -70.9333 200° South 141 162 3,200 -840 Descending KA90
05:00PM 42.4833 -70.9500 200° South 144 166 2,300 -900 Descending KA90
05:01PM 42.4500 -70.9667 200° South 140 161 1,500 -780 Descending KA90
05:02PM 42.4167 -70.9833 200° South 124 143 800 -720 Descending KA90
05:03PM 42.3833 -71.0000 200° South 125 144 100 -720 Descending KA90